sensor_id;sensor_type;location;lat;lon;timestamp;temperature;humidity
30304;DHT22;17112;48.636;10.152;2022-11-09T00:01:18;9.30;72.90
30304;DHT22;17112;48.636;10.152;2022-11-09T00:03:44;9.30;73.00
30304;DHT22;17112;48.636;10.152;2022-11-09T00:06:09;9.30;73.10
30304;DHT22;17112;48.636;10.152;2022-11-09T00:08:36;9.30;73.10
30304;DHT22;17112;48.636;10.152;2022-11-09T00:11:07;9.30;73.10
30304;DHT22;17112;48.636;10.152;2022-11-09T00:13:40;9.30;73.30
30304;DHT22;17112;48.636;10.152;2022-11-09T00:16:08;9.30;73.20
30304;DHT22;17112;48.636;10.152;2022-11-09T00:18:35;9.30;73.30
30304;DHT22;17112;48.636;10.152;2022-11-09T00:21:07;9.40;73.40
30304;DHT22;17112;48.636;10.152;2022-11-09T00:23:34;9.30;73.60
30304;DHT22;17112;48.636;10.152;2022-11-09T00:26:04;9.30;73.50
30304;DHT22;17112;48.636;10.152;2022-11-09T00:28:30;9.30;73.60
30304;DHT22;17112;48.636;10.152;2022-11-09T00:31:03;9.40;73.60
30304;DHT22;17112;48.636;10.152;2022-11-09T00:33:29;9.30;73.60
30304;DHT22;17112;48.636;10.152;2022-11-09T00:35:55;9.30;73.60
30304;DHT22;17112;48.636;10.152;2022-11-09T00:38:21;9.40;73.70
30304;DHT22;17112;48.636;10.152;2022-11-09T00:40:47;9.40;73.80
30304;DHT22;17112;48.636;10.152;2022-11-09T00:43:13;9.40;73.80
30304;DHT22;17112;48.636;10.152;2022-11-09T00:45:39;9.40;73.80
30304;DHT22;17112;48.636;10.152;2022-11-09T00:48:08;9.40;73.80
30304;DHT22;17112;48.636;10.152;2022-11-09T00:50:33;9.40;73.80
30304;DHT22;17112;48.636;10.152;2022-11-09T00:52:59;9.50;73.90
30304;DHT22;17112;48.636;10.152;2022-11-09T00:55:26;9.50;73.90
30304;DHT22;17112;48.636;10.152;2022-11-09T00:57:52;9.50;73.90
30304;DHT22;17112;48.636;10.152;2022-11-09T01:00:20;9.50;74.00
30304;DHT22;17112;48.636;10.152;2022-11-09T01:02:46;9.50;73.90
30304;DHT22;17112;48.636;10.152;2022-11-09T01:05:13;9.50;73.70
30304;DHT22;17112;48.636;10.152;2022-11-09T01:07:39;9.60;73.80
30304;DHT22;17112;48.636;10.152;2022-11-09T01:10:06;9.60;73.80
30304;DHT22;17112;48.636;10.152;2022-11-09T01:12:32;9.60;73.60
30304;DHT22;17112;48.636;10.152;2022-11-09T01:14:58;9.60;73.60
30304;DHT22;17112;48.636;10.152;2022-11-09T01:17:23;9.60;73.50
30304;DHT22;17112;48.636;10.152;2022-11-09T01:19:49;9.60;73.50
30304;DHT22;17112;48.636;10.152;2022-11-09T01:22:15;9.60;73.40
30304;DHT22;17112;48.636;10.152;2022-11-09T01:24:41;9.60;73.40
30304;DHT22;17112;48.636;10.152;2022-11-09T01:27:07;9.60;73.30
30304;DHT22;17112;48.636;10.152;2022-11-09T01:29:33;9.60;73.30
30304;DHT22;17112;48.636;10.152;2022-11-09T01:31:59;9.60;73.20
30304;DHT22;17112;48.636;10.152;2022-11-09T01:34:26;9.60;73.20
30304;DHT22;17112;48.636;10.152;2022-11-09T01:36:52;9.60;73.40
30304;DHT22;17112;48.636;10.152;2022-11-09T01:39:19;9.50;73.40
30304;DHT22;17112;48.636;10.152;2022-11-09T01:41:45;9.50;73.40
30304;DHT22;17112;48.636;10.152;2022-11-09T01:44:16;9.50;73.50
30304;DHT22;17112;48.636;10.152;2022-11-09T01:49:44;9.50;73.80
30304;DHT22;17112;48.636;10.152;2022-11-09T01:52:22;9.50;73.70
30304;DHT22;17112;48.636;10.152;2022-11-09T01:54:56;9.50;73.80
30304;DHT22;17112;48.636;10.152;2022-11-09T01:58:05;9.50;73.80
30304;DHT22;17112;48.636;10.152;2022-11-09T02:00:33;9.50;74.30
30304;DHT22;17112;48.636;10.152;2022-11-09T02:03:17;9.50;73.70
30304;DHT22;17112;48.636;10.152;2022-11-09T02:05:44;9.50;73.80
30304;DHT22;17112;48.636;10.152;2022-11-09T02:08:14;9.50;73.70
30304;DHT22;17112;48.636;10.152;2022-11-09T02:13:08;9.60;73.60
30304;DHT22;17112;48.636;10.152;2022-11-09T02:15:36;9.40;73.50
30304;DHT22;17112;48.636;10.152;2022-11-09T02:18:03;9.40;73.60
30304;DHT22;17112;48.636;10.152;2022-11-09T02:20:29;9.40;73.60
30304;DHT22;17112;48.636;10.152;2022-11-09T02:22:55;9.40;73.60
30304;DHT22;17112;48.636;10.152;2022-11-09T02:25:21;9.40;73.60
30304;DHT22;17112;48.636;10.152;2022-11-09T02:27:48;9.40;73.60
30304;DHT22;17112;48.636;10.152;2022-11-09T02:30:14;9.40;73.60
30304;DHT22;17112;48.636;10.152;2022-11-09T02:32:40;9.30;73.50
30304;DHT22;17112;48.636;10.152;2022-11-09T02:35:06;9.30;73.50
30304;DHT22;17112;48.636;10.152;2022-11-09T02:37:47;9.20;73.50
30304;DHT22;17112;48.636;10.152;2022-11-09T02:40:19;9.30;73.70
30304;DHT22;17112;48.636;10.152;2022-11-09T02:42:46;9.30;73.60
30304;DHT22;17112;48.636;10.152;2022-11-09T02:45:12;9.30;73.60
30304;DHT22;17112;48.636;10.152;2022-11-09T02:47:38;9.30;73.60
30304;DHT22;17112;48.636;10.152;2022-11-09T02:50:12;9.30;73.70
30304;DHT22;17112;48.636;10.152;2022-11-09T02:52:37;9.50;74.00
30304;DHT22;17112;48.636;10.152;2022-11-09T02:55:03;9.30;73.80
30304;DHT22;17112;48.636;10.152;2022-11-09T02:57:30;9.20;73.70
30304;DHT22;17112;48.636;10.152;2022-11-09T02:59:55;9.30;73.80
30304;DHT22;17112;48.636;10.152;2022-11-09T03:02:21;9.30;73.90
30304;DHT22;17112;48.636;10.152;2022-11-09T03:04:47;9.20;73.80
30304;DHT22;17112;48.636;10.152;2022-11-09T03:07:12;9.20;73.70
30304;DHT22;17112;48.636;10.152;2022-11-09T03:09:38;9.20;73.80
30304;DHT22;17112;48.636;10.152;2022-11-09T03:12:04;9.20;73.80
30304;DHT22;17112;48.636;10.152;2022-11-09T03:14:50;9.20;73.90
30304;DHT22;17112;48.636;10.152;2022-11-09T03:17:16;9.30;74.00
30304;DHT22;17112;48.636;10.152;2022-11-09T03:19:43;9.20;74.00
30304;DHT22;17112;48.636;10.152;2022-11-09T03:22:09;9.30;74.10
30304;DHT22;17112;48.636;10.152;2022-11-09T03:24:34;9.30;74.10
30304;DHT22;17112;48.636;10.152;2022-11-09T03:27:00;9.30;74.20
30304;DHT22;17112;48.636;10.152;2022-11-09T03:29:26;9.30;74.30
30304;DHT22;17112;48.636;10.152;2022-11-09T03:31:51;9.30;74.30
30304;DHT22;17112;48.636;10.152;2022-11-09T03:34:17;9.30;74.40
30304;DHT22;17112;48.636;10.152;2022-11-09T03:36:43;9.40;74.50
30304;DHT22;17112;48.636;10.152;2022-11-09T03:39:09;9.40;74.50
30304;DHT22;17112;48.636;10.152;2022-11-09T03:41:35;9.40;74.40
30304;DHT22;17112;48.636;10.152;2022-11-09T03:44:00;9.40;74.40
30304;DHT22;17112;48.636;10.152;2022-11-09T03:46:26;9.40;74.50
30304;DHT22;17112;48.636;10.152;2022-11-09T03:48:52;9.40;74.50
30304;DHT22;17112;48.636;10.152;2022-11-09T03:51:18;9.50;74.70
30304;DHT22;17112;48.636;10.152;2022-11-09T03:53:43;9.50;74.60
30304;DHT22;17112;48.636;10.152;2022-11-09T03:56:10;9.50;74.70
30304;DHT22;17112;48.636;10.152;2022-11-09T03:58:36;9.50;74.70
30304;DHT22;17112;48.636;10.152;2022-11-09T04:01:02;9.50;74.70
30304;DHT22;17112;48.636;10.152;2022-11-09T04:03:28;9.60;74.80
30304;DHT22;17112;48.636;10.152;2022-11-09T04:05:53;9.60;74.80
30304;DHT22;17112;48.636;10.152;2022-11-09T04:08:19;9.60;74.80
30304;DHT22;17112;48.636;10.152;2022-11-09T04:10:45;9.60;74.80
30304;DHT22;17112;48.636;10.152;2022-11-09T04:13:10;9.60;74.80
30304;DHT22;17112;48.636;10.152;2022-11-09T04:15:36;9.60;74.80
30304;DHT22;17112;48.636;10.152;2022-11-09T04:18:02;9.70;74.90
30304;DHT22;17112;48.636;10.152;2022-11-09T04:20:29;9.70;74.90
30304;DHT22;17112;48.636;10.152;2022-11-09T04:22:56;9.70;74.90
30304;DHT22;17112;48.636;10.152;2022-11-09T04:25:23;9.70;74.90
30304;DHT22;17112;48.636;10.152;2022-11-09T04:27:54;9.80;75.00
30304;DHT22;17112;48.636;10.152;2022-11-09T04:30:20;9.80;75.00
30304;DHT22;17112;48.636;10.152;2022-11-09T04:32:46;9.80;74.80
30304;DHT22;17112;48.636;10.152;2022-11-09T04:35:12;9.80;74.80
30304;DHT22;17112;48.636;10.152;2022-11-09T04:37:37;9.80;74.80
30304;DHT22;17112;48.636;10.152;2022-11-09T04:40:03;9.90;74.80
30304;DHT22;17112;48.636;10.152;2022-11-09T04:42:29;9.90;74.90
30304;DHT22;17112;48.636;10.152;2022-11-09T04:44:55;9.90;74.80
30304;DHT22;17112;48.636;10.152;2022-11-09T04:47:20;9.90;74.70
30304;DHT22;17112;48.636;10.152;2022-11-09T04:49:46;9.90;74.90
30304;DHT22;17112;48.636;10.152;2022-11-09T04:52:11;9.90;74.90
30304;DHT22;17112;48.636;10.152;2022-11-09T04:54:37;9.90;74.90
30304;DHT22;17112;48.636;10.152;2022-11-09T04:57:03;9.90;74.90
30304;DHT22;17112;48.636;10.152;2022-11-09T04:59:28;9.90;74.90
30304;DHT22;17112;48.636;10.152;2022-11-09T05:01:54;9.90;74.90
30304;DHT22;17112;48.636;10.152;2022-11-09T05:04:20;10.00;75.00
30304;DHT22;17112;48.636;10.152;2022-11-09T05:06:45;10.00;74.80
30304;DHT22;17112;48.636;10.152;2022-11-09T05:09:11;9.90;75.00
30304;DHT22;17112;48.636;10.152;2022-11-09T05:11:37;10.00;75.20
30304;DHT22;17112;48.636;10.152;2022-11-09T05:14:03;10.00;75.30
30304;DHT22;17112;48.636;10.152;2022-11-09T05:16:29;10.20;75.50
30304;DHT22;17112;48.636;10.152;2022-11-09T05:18:55;10.10;75.50
30304;DHT22;17112;48.636;10.152;2022-11-09T05:21:21;10.00;75.50
30304;DHT22;17112;48.636;10.152;2022-11-09T05:23:48;10.10;75.50
30304;DHT22;17112;48.636;10.152;2022-11-09T05:26:31;10.10;75.50
30304;DHT22;17112;48.636;10.152;2022-11-09T05:28:58;10.10;75.60
30304;DHT22;17112;48.636;10.152;2022-11-09T05:31:25;10.20;75.40
30304;DHT22;17112;48.636;10.152;2022-11-09T05:33:51;10.20;75.50
30304;DHT22;17112;48.636;10.152;2022-11-09T05:36:18;10.20;75.50
30304;DHT22;17112;48.636;10.152;2022-11-09T05:38:44;10.20;75.60
30304;DHT22;17112;48.636;10.152;2022-11-09T05:41:10;10.20;75.60
30304;DHT22;17112;48.636;10.152;2022-11-09T05:43:35;10.20;75.60
30304;DHT22;17112;48.636;10.152;2022-11-09T05:46:01;10.20;75.40
30304;DHT22;17112;48.636;10.152;2022-11-09T05:48:28;10.20;75.50
30304;DHT22;17112;48.636;10.152;2022-11-09T05:50:54;10.20;75.60
30304;DHT22;17112;48.636;10.152;2022-11-09T05:53:19;10.20;75.80
30304;DHT22;17112;48.636;10.152;2022-11-09T05:55:45;10.20;75.80
30304;DHT22;17112;48.636;10.152;2022-11-09T05:58:11;10.20;75.80
30304;DHT22;17112;48.636;10.152;2022-11-09T06:00:36;10.20;75.90
30304;DHT22;17112;48.636;10.152;2022-11-09T06:03:04;10.20;76.00
30304;DHT22;17112;48.636;10.152;2022-11-09T06:05:32;10.20;76.00
30304;DHT22;17112;48.636;10.152;2022-11-09T06:08:06;10.30;76.10
30304;DHT22;17112;48.636;10.152;2022-11-09T06:10:32;10.30;76.20
30304;DHT22;17112;48.636;10.152;2022-11-09T06:12:58;10.30;76.00
30304;DHT22;17112;48.636;10.152;2022-11-09T06:15:24;10.30;75.90
30304;DHT22;17112;48.636;10.152;2022-11-09T06:17:53;10.40;76.00
30304;DHT22;17112;48.636;10.152;2022-11-09T06:20:20;10.40;76.10
30304;DHT22;17112;48.636;10.152;2022-11-09T06:23:12;10.40;76.00
30304;DHT22;17112;48.636;10.152;2022-11-09T06:25:38;10.40;76.50
30304;DHT22;17112;48.636;10.152;2022-11-09T06:28:03;10.40;75.90
30304;DHT22;17112;48.636;10.152;2022-11-09T06:30:29;10.40;76.00
30304;DHT22;17112;48.636;10.152;2022-11-09T06:32:59;10.40;75.90
30304;DHT22;17112;48.636;10.152;2022-11-09T06:35:25;10.40;76.00
30304;DHT22;17112;48.636;10.152;2022-11-09T06:37:58;10.50;75.90
30304;DHT22;17112;48.636;10.152;2022-11-09T06:40:24;10.50;76.10
30304;DHT22;17112;48.636;10.152;2022-11-09T06:42:50;10.50;75.80
30304;DHT22;17112;48.636;10.152;2022-11-09T06:45:15;10.50;75.90
30304;DHT22;17112;48.636;10.152;2022-11-09T06:47:41;10.50;75.90
30304;DHT22;17112;48.636;10.152;2022-11-09T06:50:07;10.50;76.00
30304;DHT22;17112;48.636;10.152;2022-11-09T06:52:34;10.50;76.00
30304;DHT22;17112;48.636;10.152;2022-11-09T06:54:59;10.50;76.10
30304;DHT22;17112;48.636;10.152;2022-11-09T06:57:28;10.60;75.90
30304;DHT22;17112;48.636;10.152;2022-11-09T06:59:54;10.60;75.90
30304;DHT22;17112;48.636;10.152;2022-11-09T07:02:20;10.60;75.60
30304;DHT22;17112;48.636;10.152;2022-11-09T07:04:50;10.60;75.80
30304;DHT22;17112;48.636;10.152;2022-11-09T07:07:16;10.60;75.70
30304;DHT22;17112;48.636;10.152;2022-11-09T07:09:41;10.60;75.90
30304;DHT22;17112;48.636;10.152;2022-11-09T07:12:08;10.60;76.20
30304;DHT22;17112;48.636;10.152;2022-11-09T07:14:34;10.50;75.90
30304;DHT22;17112;48.636;10.152;2022-11-09T07:17:00;10.60;76.20
30304;DHT22;17112;48.636;10.152;2022-11-09T07:19:27;10.60;76.40
30304;DHT22;17112;48.636;10.152;2022-11-09T07:21:54;10.60;76.40
30304;DHT22;17112;48.636;10.152;2022-11-09T07:24:20;10.60;76.40
30304;DHT22;17112;48.636;10.152;2022-11-09T07:26:47;10.70;76.70
30304;DHT22;17112;48.636;10.152;2022-11-09T07:29:13;10.70;76.80
30304;DHT22;17112;48.636;10.152;2022-11-09T07:31:38;10.70;76.80
30304;DHT22;17112;48.636;10.152;2022-11-09T07:34:04;10.80;76.70
30304;DHT22;17112;48.636;10.152;2022-11-09T07:36:30;10.80;76.40
30304;DHT22;17112;48.636;10.152;2022-11-09T07:38:56;10.90;76.50
30304;DHT22;17112;48.636;10.152;2022-11-09T07:41:23;10.90;76.60
30304;DHT22;17112;48.636;10.152;2022-11-09T07:43:49;11.10;76.50
30304;DHT22;17112;48.636;10.152;2022-11-09T07:46:14;11.00;76.30
30304;DHT22;17112;48.636;10.152;2022-11-09T07:48:40;11.00;76.30
30304;DHT22;17112;48.636;10.152;2022-11-09T07:51:06;11.00;76.30
30304;DHT22;17112;48.636;10.152;2022-11-09T07:53:31;11.10;76.40
30304;DHT22;17112;48.636;10.152;2022-11-09T07:55:59;11.10;76.50
30304;DHT22;17112;48.636;10.152;2022-11-09T07:58:26;11.10;76.60
30304;DHT22;17112;48.636;10.152;2022-11-09T08:00:52;11.10;76.60
30304;DHT22;17112;48.636;10.152;2022-11-09T08:03:19;11.20;76.60
30304;DHT22;17112;48.636;10.152;2022-11-09T08:05:45;11.20;76.60
30304;DHT22;17112;48.636;10.152;2022-11-09T08:08:11;11.30;76.60
30304;DHT22;17112;48.636;10.152;2022-11-09T08:10:38;11.30;76.60
30304;DHT22;17112;48.636;10.152;2022-11-09T08:13:10;11.30;76.60
30304;DHT22;17112;48.636;10.152;2022-11-09T08:15:36;11.40;76.50
30304;DHT22;17112;48.636;10.152;2022-11-09T08:18:08;11.40;76.40
30304;DHT22;17112;48.636;10.152;2022-11-09T08:20:34;11.50;76.40
30304;DHT22;17112;48.636;10.152;2022-11-09T08:23:00;11.50;76.40
30304;DHT22;17112;48.636;10.152;2022-11-09T08:25:26;11.50;76.30
30304;DHT22;17112;48.636;10.152;2022-11-09T08:27:51;11.60;76.90
30304;DHT22;17112;48.636;10.152;2022-11-09T08:30:20;11.60;76.30
30304;DHT22;17112;48.636;10.152;2022-11-09T08:32:47;11.60;75.90
30304;DHT22;17112;48.636;10.152;2022-11-09T08:35:15;11.70;75.80
30304;DHT22;17112;48.636;10.152;2022-11-09T08:37:47;11.70;75.70
30304;DHT22;17112;48.636;10.152;2022-11-09T08:40:15;11.70;75.80
30304;DHT22;17112;48.636;10.152;2022-11-09T08:42:41;11.70;75.60
30304;DHT22;17112;48.636;10.152;2022-11-09T08:45:07;11.70;75.40
30304;DHT22;17112;48.636;10.152;2022-11-09T08:47:33;11.70;75.50
30304;DHT22;17112;48.636;10.152;2022-11-09T08:49:59;11.70;75.60
30304;DHT22;17112;48.636;10.152;2022-11-09T08:52:25;11.70;75.80
30304;DHT22;17112;48.636;10.152;2022-11-09T08:54:52;11.70;75.90
30304;DHT22;17112;48.636;10.152;2022-11-09T08:57:18;11.70;76.00
30304;DHT22;17112;48.636;10.152;2022-11-09T08:59:44;11.70;76.00
30304;DHT22;17112;48.636;10.152;2022-11-09T09:02:11;11.80;76.10
30304;DHT22;17112;48.636;10.152;2022-11-09T09:04:37;11.80;76.70
30304;DHT22;17112;48.636;10.152;2022-11-09T09:07:03;11.80;76.10
30304;DHT22;17112;48.636;10.152;2022-11-09T09:09:28;11.80;76.20
30304;DHT22;17112;48.636;10.152;2022-11-09T09:11:54;11.90;76.30
30304;DHT22;17112;48.636;10.152;2022-11-09T09:14:20;11.90;76.30
30304;DHT22;17112;48.636;10.152;2022-11-09T09:16:46;12.00;76.30
30304;DHT22;17112;48.636;10.152;2022-11-09T09:19:11;12.00;76.20
30304;DHT22;17112;48.636;10.152;2022-11-09T09:21:37;12.00;76.20
30304;DHT22;17112;48.636;10.152;2022-11-09T09:24:03;12.10;76.30
30304;DHT22;17112;48.636;10.152;2022-11-09T09:26:28;12.10;76.30
30304;DHT22;17112;48.636;10.152;2022-11-09T09:28:54;12.20;76.50
30304;DHT22;17112;48.636;10.152;2022-11-09T09:31:20;12.20;76.60
30304;DHT22;17112;48.636;10.152;2022-11-09T09:33:46;12.30;76.80
30304;DHT22;17112;48.636;10.152;2022-11-09T09:36:21;12.40;77.00
30304;DHT22;17112;48.636;10.152;2022-11-09T09:38:50;12.40;77.70
30304;DHT22;17112;48.636;10.152;2022-11-09T09:41:36;12.50;78.50
30304;DHT22;17112;48.636;10.152;2022-11-09T09:50:23;12.90;79.50
30304;DHT22;17112;48.636;10.152;2022-11-09T09:52:33;13.00;79.10
30304;DHT22;17112;48.636;10.152;2022-11-09T09:55:36;13.10;79.70
30304;DHT22;17112;48.636;10.152;2022-11-09T09:58:28;13.20;81.10
30304;DHT22;17112;48.636;10.152;2022-11-09T10:01:03;13.40;80.50
30304;DHT22;17112;48.636;10.152;2022-11-09T10:03:30;13.60;79.70
30304;DHT22;17112;48.636;10.152;2022-11-09T10:06:16;13.70;79.60
30304;DHT22;17112;48.636;10.152;2022-11-09T10:11:26;14.00;79.30
30304;DHT22;17112;48.636;10.152;2022-11-09T10:17:10;14.40;79.20
30304;DHT22;17112;48.636;10.152;2022-11-09T10:20:10;14.60;79.00
30304;DHT22;17112;48.636;10.152;2022-11-09T10:25:27;14.90;78.70
30304;DHT22;17112;48.636;10.152;2022-11-09T10:28:00;15.10;78.10
30304;DHT22;17112;48.636;10.152;2022-11-09T10:30:28;15.20;77.60
30304;DHT22;17112;48.636;10.152;2022-11-09T10:33:17;15.30;77.30
30304;DHT22;17112;48.636;10.152;2022-11-09T10:38:28;15.60;76.90
30304;DHT22;17112;48.636;10.152;2022-11-09T10:43:52;15.90;76.20
30304;DHT22;17112;48.636;10.152;2022-11-09T10:46:18;16.00;75.70
30304;DHT22;17112;48.636;10.152;2022-11-09T10:48:45;16.10;75.60
30304;DHT22;17112;48.636;10.152;2022-11-09T10:54:34;16.30;74.30
30304;DHT22;17112;48.636;10.152;2022-11-09T10:57:11;16.50;74.10
30304;DHT22;17112;48.636;10.152;2022-11-09T10:59:50;16.50;73.50
30304;DHT22;17112;48.636;10.152;2022-11-09T11:07:33;16.80;73.00
30304;DHT22;17112;48.636;10.152;2022-11-09T11:10:28;16.80;72.80
30304;DHT22;17112;48.636;10.152;2022-11-09T11:13:18;16.90;72.30
30304;DHT22;17112;48.636;10.152;2022-11-09T11:15:42;17.00;73.70
30304;DHT22;17112;48.636;10.152;2022-11-09T11:18:23;17.00;72.30
30304;DHT22;17112;48.636;10.152;2022-11-09T11:21:15;17.00;71.30
30304;DHT22;17112;48.636;10.152;2022-11-09T11:23:41;17.10;71.70
30304;DHT22;17112;48.636;10.152;2022-11-09T11:28:47;17.10;71.80
30304;DHT22;17112;48.636;10.152;2022-11-09T11:31:18;17.10;72.00
30304;DHT22;17112;48.636;10.152;2022-11-09T11:33:44;17.10;72.10
30304;DHT22;17112;48.636;10.152;2022-11-09T11:36:35;17.20;72.30
30304;DHT22;17112;48.636;10.152;2022-11-09T11:42:27;17.40;72.00
30304;DHT22;17112;48.636;10.152;2022-11-09T11:45:15;17.60;71.50
30304;DHT22;17112;48.636;10.152;2022-11-09T11:58:35;18.00;69.70
30304;DHT22;17112;48.636;10.152;2022-11-09T12:04:02;17.90;68.90
30304;DHT22;17112;48.636;10.152;2022-11-09T12:18:03;17.80;68.90
30304;DHT22;17112;48.636;10.152;2022-11-09T12:20:42;17.80;69.30
30304;DHT22;17112;48.636;10.152;2022-11-09T12:34:08;18.00;69.60
30304;DHT22;17112;48.636;10.152;2022-11-09T12:41:35;18.20;69.70
30304;DHT22;17112;48.636;10.152;2022-11-09T12:44:15;18.30;69.20
30304;DHT22;17112;48.636;10.152;2022-11-09T12:47:01;18.40;68.20
30304;DHT22;17112;48.636;10.152;2022-11-09T12:49:39;18.40;68.30
30304;DHT22;17112;48.636;10.152;2022-11-09T12:52:26;18.70;68.50
30304;DHT22;17112;48.636;10.152;2022-11-09T12:54:54;18.50;67.50
30304;DHT22;17112;48.636;10.152;2022-11-09T12:57:22;18.50;68.00
30304;DHT22;17112;48.636;10.152;2022-11-09T12:59:51;18.50;68.00
30304;DHT22;17112;48.636;10.152;2022-11-09T13:02:27;18.50;67.90
30304;DHT22;17112;48.636;10.152;2022-11-09T13:05:01;18.50;67.60
30304;DHT22;17112;48.636;10.152;2022-11-09T13:07:48;18.50;67.90
30304;DHT22;17112;48.636;10.152;2022-11-09T13:10:37;18.40;67.30
30304;DHT22;17112;48.636;10.152;2022-11-09T13:23:48;18.40;66.90
30304;DHT22;17112;48.636;10.152;2022-11-09T13:34:55;18.40;67.00
30304;DHT22;17112;48.636;10.152;2022-11-09T13:43:03;18.40;67.40
30304;DHT22;17112;48.636;10.152;2022-11-09T13:48:03;18.30;67.00
30304;DHT22;17112;48.636;10.152;2022-11-09T13:50:31;18.30;67.20
30304;DHT22;17112;48.636;10.152;2022-11-09T13:52:58;18.20;67.20
30304;DHT22;17112;48.636;10.152;2022-11-09T13:55:35;18.20;67.30
30304;DHT22;17112;48.636;10.152;2022-11-09T13:58:13;18.20;67.40
30304;DHT22;17112;48.636;10.152;2022-11-09T14:00:45;18.20;67.20
30304;DHT22;17112;48.636;10.152;2022-11-09T14:03:26;18.20;67.30
30304;DHT22;17112;48.636;10.152;2022-11-09T14:05:57;18.20;67.40
30304;DHT22;17112;48.636;10.152;2022-11-09T14:08:29;18.20;67.40
30304;DHT22;17112;48.636;10.152;2022-11-09T14:14:02;18.20;67.00
30304;DHT22;17112;48.636;10.152;2022-11-09T14:22:19;18.10;66.60
30304;DHT22;17112;48.636;10.152;2022-11-09T14:24:45;18.10;66.90
30304;DHT22;17112;48.636;10.152;2022-11-09T14:29:47;18.10;66.90
30304;DHT22;17112;48.636;10.152;2022-11-09T14:32:23;18.10;66.60
30304;DHT22;17112;48.636;10.152;2022-11-09T14:34:49;18.00;66.40
30304;DHT22;17112;48.636;10.152;2022-11-09T14:37:15;18.00;67.00
30304;DHT22;17112;48.636;10.152;2022-11-09T14:39:46;18.00;66.90
30304;DHT22;17112;48.636;10.152;2022-11-09T14:42:17;17.90;66.80
30304;DHT22;17112;48.636;10.152;2022-11-09T14:44:44;17.90;66.90
30304;DHT22;17112;48.636;10.152;2022-11-09T14:47:18;17.90;67.10
30304;DHT22;17112;48.636;10.152;2022-11-09T14:49:47;17.80;67.00
30304;DHT22;17112;48.636;10.152;2022-11-09T14:52:18;17.80;67.20
30304;DHT22;17112;48.636;10.152;2022-11-09T14:54:46;17.80;67.40
30304;DHT22;17112;48.636;10.152;2022-11-09T14:57:14;17.80;67.60
30304;DHT22;17112;48.636;10.152;2022-11-09T14:59:43;17.70;67.60
30304;DHT22;17112;48.636;10.152;2022-11-09T15:02:12;17.70;67.40
30304;DHT22;17112;48.636;10.152;2022-11-09T15:07:57;17.60;67.80
30304;DHT22;17112;48.636;10.152;2022-11-09T15:10:25;17.50;68.00
30304;DHT22;17112;48.636;10.152;2022-11-09T15:12:57;17.40;68.30
30304;DHT22;17112;48.636;10.152;2022-11-09T15:15:26;17.40;68.60
30304;DHT22;17112;48.636;10.152;2022-11-09T15:17:52;17.30;68.70
30304;DHT22;17112;48.636;10.152;2022-11-09T15:23:04;17.20;69.20
30304;DHT22;17112;48.636;10.152;2022-11-09T15:25:56;17.10;69.80
30304;DHT22;17112;48.636;10.152;2022-11-09T15:28:26;17.00;70.10
30304;DHT22;17112;48.636;10.152;2022-11-09T15:36:01;16.80;70.30
30304;DHT22;17112;48.636;10.152;2022-11-09T15:39:14;16.70;71.00
30304;DHT22;17112;48.636;10.152;2022-11-09T15:41:21;16.60;70.90
30304;DHT22;17112;48.636;10.152;2022-11-09T15:43:48;16.60;71.00
30304;DHT22;17112;48.636;10.152;2022-11-09T15:46:19;16.50;71.30
30304;DHT22;17112;48.636;10.152;2022-11-09T15:48:46;16.50;71.70
30304;DHT22;17112;48.636;10.152;2022-11-09T15:51:13;16.50;71.90
30304;DHT22;17112;48.636;10.152;2022-11-09T15:53:39;16.40;72.00
30304;DHT22;17112;48.636;10.152;2022-11-09T15:56:06;16.40;72.00
30304;DHT22;17112;48.636;10.152;2022-11-09T15:58:34;16.30;71.90
30304;DHT22;17112;48.636;10.152;2022-11-09T16:00:59;16.30;71.90
30304;DHT22;17112;48.636;10.152;2022-11-09T16:03:25;16.30;72.00
30304;DHT22;17112;48.636;10.152;2022-11-09T16:05:51;16.20;72.20
30304;DHT22;17112;48.636;10.152;2022-11-09T16:08:16;16.20;72.30
30304;DHT22;17112;48.636;10.152;2022-11-09T16:10:43;16.20;72.40
30304;DHT22;17112;48.636;10.152;2022-11-09T16:13:09;16.20;72.50
30304;DHT22;17112;48.636;10.152;2022-11-09T16:15:36;16.10;72.70
30304;DHT22;17112;48.636;10.152;2022-11-09T16:18:03;16.10;73.50
30304;DHT22;17112;48.636;10.152;2022-11-09T16:20:29;16.10;73.00
30304;DHT22;17112;48.636;10.152;2022-11-09T16:22:55;16.10;73.10
30304;DHT22;17112;48.636;10.152;2022-11-09T16:25:21;16.10;73.10
30304;DHT22;17112;48.636;10.152;2022-11-09T16:27:47;16.00;73.00
30304;DHT22;17112;48.636;10.152;2022-11-09T16:30:13;16.00;72.90
30304;DHT22;17112;48.636;10.152;2022-11-09T16:32:39;15.90;72.80
30304;DHT22;17112;48.636;10.152;2022-11-09T16:35:06;15.90;72.80
30304;DHT22;17112;48.636;10.152;2022-11-09T16:37:35;15.90;72.90
30304;DHT22;17112;48.636;10.152;2022-11-09T16:40:05;15.90;73.00
30304;DHT22;17112;48.636;10.152;2022-11-09T16:42:32;15.80;73.10
30304;DHT22;17112;48.636;10.152;2022-11-09T16:45:07;15.80;73.10
30304;DHT22;17112;48.636;10.152;2022-11-09T16:47:46;15.80;73.30
30304;DHT22;17112;48.636;10.152;2022-11-09T16:50:13;15.70;73.50
30304;DHT22;17112;48.636;10.152;2022-11-09T16:52:39;15.70;73.20
30304;DHT22;17112;48.636;10.152;2022-11-09T16:55:05;15.70;73.30
30304;DHT22;17112;48.636;10.152;2022-11-09T16:57:34;15.60;73.30
30304;DHT22;17112;48.636;10.152;2022-11-09T16:59:59;15.60;73.40
30304;DHT22;17112;48.636;10.152;2022-11-09T17:02:26;15.60;73.40
30304;DHT22;17112;48.636;10.152;2022-11-09T17:04:52;15.50;73.40
30304;DHT22;17112;48.636;10.152;2022-11-09T17:07:19;15.50;73.50
30304;DHT22;17112;48.636;10.152;2022-11-09T17:09:45;15.50;73.60
30304;DHT22;17112;48.636;10.152;2022-11-09T17:12:11;15.50;73.70
30304;DHT22;17112;48.636;10.152;2022-11-09T17:14:37;15.50;73.70
30304;DHT22;17112;48.636;10.152;2022-11-09T17:17:02;15.40;73.70
30304;DHT22;17112;48.636;10.152;2022-11-09T17:19:32;15.40;73.80
30304;DHT22;17112;48.636;10.152;2022-11-09T17:21:58;15.40;73.80
30304;DHT22;17112;48.636;10.152;2022-11-09T17:24:25;15.40;73.80
30304;DHT22;17112;48.636;10.152;2022-11-09T17:26:51;15.40;73.80
30304;DHT22;17112;48.636;10.152;2022-11-09T17:29:17;15.40;73.80
30304;DHT22;17112;48.636;10.152;2022-11-09T17:31:43;15.30;73.90
30304;DHT22;17112;48.636;10.152;2022-11-09T17:34:09;15.30;74.00
30304;DHT22;17112;48.636;10.152;2022-11-09T17:36:37;15.30;74.10
30304;DHT22;17112;48.636;10.152;2022-11-09T17:39:03;15.20;74.20
30304;DHT22;17112;48.636;10.152;2022-11-09T17:41:30;15.20;74.20